sensor_id;sensor_type;location;lat;lon;timestamp;P1;durP1;ratioP1;P2;durP2;ratioP2
54983;SDS011;40884;53.562;9.940;2022-11-28T00:00:20;18.87;;;11.10;;
54983;SDS011;40884;53.562;9.940;2022-11-28T00:01:21;15.57;;;10.97;;
54983;SDS011;40884;53.562;9.940;2022-11-28T00:02:22;14.73;;;10.45;;
54983;SDS011;40884;53.562;9.940;2022-11-28T00:03:22;13.97;;;10.43;;
54983;SDS011;40884;53.562;9.940;2022-11-28T00:04:22;17.60;;;10.83;;
54983;SDS011;40884;53.562;9.940;2022-11-28T00:05:22;14.97;;;10.53;;
54983;SDS011;40884;53.562;9.940;2022-11-28T00:06:23;15.97;;;10.70;;
54983;SDS011;40884;53.562;9.940;2022-11-28T00:07:23;13.97;;;10.23;;
54983;SDS011;40884;53.562;9.940;2022-11-28T00:08:23;15.53;;;10.23;;
54983;SDS011;40884;53.562;9.940;2022-11-28T00:09:24;15.30;;;10.23;;
54983;SDS011;40884;53.562;9.940;2022-11-28T00:10:24;16.97;;;10.53;;
54983;SDS011;40884;53.562;9.940;2022-11-28T00:11:24;14.47;;;10.07;;
54983;SDS011;40884;53.562;9.940;2022-11-28T00:12:24;14.40;;;10.03;;
54983;SDS011;40884;53.562;9.940;2022-11-28T00:13:24;14.23;;;10.57;;
54983;SDS011;40884;53.562;9.940;2022-11-28T00:14:24;15.97;;;10.47;;
54983;SDS011;40884;53.562;9.940;2022-11-28T00:15:24;14.93;;;10.03;;
54983;SDS011;40884;53.562;9.940;2022-11-28T00:16:25;15.20;;;10.83;;
54983;SDS011;40884;53.562;9.940;2022-11-28T00:17:25;14.63;;;9.67;;
54983;SDS011;40884;53.562;9.940;2022-11-28T00:18:25;14.53;;;10.13;;
54983;SDS011;40884;53.562;9.940;2022-11-28T00:19:25;14.43;;;10.20;;
54983;SDS011;40884;53.562;9.940;2022-11-28T00:20:26;14.20;;;10.30;;
54983;SDS011;40884;53.562;9.940;2022-11-28T00:21:26;15.00;;;10.33;;
54983;SDS011;40884;53.562;9.940;2022-11-28T00:22:27;14.70;;;10.50;;
54983;SDS011;40884;53.562;9.940;2022-11-28T00:23:27;13.23;;;10.37;;
54983;SDS011;40884;53.562;9.940;2022-11-28T00:24:27;12.37;;;10.13;;
54983;SDS011;40884;53.562;9.940;2022-11-28T00:25:27;14.00;;;9.93;;
54983;SDS011;40884;53.562;9.940;2022-11-28T00:26:28;16.73;;;10.37;;
54983;SDS011;40884;53.562;9.940;2022-11-28T00:27:29;15.77;;;10.43;;
54983;SDS011;40884;53.562;9.940;2022-11-28T00:28:29;12.47;;;10.27;;
54983;SDS011;40884;53.562;9.940;2022-11-28T00:29:30;13.97;;;10.10;;
54983;SDS011;40884;53.562;9.940;2022-11-28T00:30:30;11.67;;;9.97;;
54983;SDS011;40884;53.562;9.940;2022-11-28T00:31:31;14.53;;;10.17;;
54983;SDS011;40884;53.562;9.940;2022-11-28T00:32:32;14.57;;;10.25;;
54983;SDS011;40884;53.562;9.940;2022-11-28T00:33:33;13.57;;;10.37;;
54983;SDS011;40884;53.562;9.940;2022-11-28T00:34:33;14.17;;;9.80;;
54983;SDS011;40884;53.562;9.940;2022-11-28T00:35:33;11.83;;;9.37;;
54983;SDS011;40884;53.562;9.940;2022-11-28T00:36:33;13.10;;;9.50;;
54983;SDS011;40884;53.562;9.940;2022-11-28T00:37:34;14.33;;;10.10;;
54983;SDS011;40884;53.562;9.940;2022-11-28T00:38:35;13.90;;;10.30;;
54983;SDS011;40884;53.562;9.940;2022-11-28T00:39:35;12.90;;;9.23;;
54983;SDS011;40884;53.562;9.940;2022-11-28T00:40:35;15.53;;;10.43;;
54983;SDS011;40884;53.562;9.940;2022-11-28T00:41:35;15.30;;;10.10;;
54983;SDS011;40884;53.562;9.940;2022-11-28T00:42:36;13.50;;;9.73;;
54983;SDS011;40884;53.562;9.940;2022-11-28T00:43:36;16.33;;;9.40;;
54983;SDS011;40884;53.562;9.940;2022-11-28T00:44:36;13.13;;;9.13;;
54983;SDS011;40884;53.562;9.940;2022-11-28T00:45:36;16.47;;;9.87;;
54983;SDS011;40884;53.562;9.940;2022-11-28T00:46:36;13.67;;;9.47;;
54983;SDS011;40884;53.562;9.940;2022-11-28T00:47:36;13.23;;;9.50;;
54983;SDS011;40884;53.562;9.940;2022-11-28T00:48:37;14.43;;;10.23;;
54983;SDS011;40884;53.562;9.940;2022-11-28T00:49:37;14.27;;;10.27;;
54983;SDS011;40884;53.562;9.940;2022-11-28T00:50:37;13.90;;;9.73;;
54983;SDS011;40884;53.562;9.940;2022-11-28T00:51:37;11.50;;;9.43;;
54983;SDS011;40884;53.562;9.940;2022-11-28T00:52:37;13.27;;;9.37;;
54983;SDS011;40884;53.562;9.940;2022-11-28T00:53:38;14.80;;;9.07;;
54983;SDS011;40884;53.562;9.940;2022-11-28T00:54:38;13.10;;;9.63;;
54983;SDS011;40884;53.562;9.940;2022-11-28T00:55:38;12.37;;;9.37;;
54983;SDS011;40884;53.562;9.940;2022-11-28T00:56:39;12.07;;;9.60;;
54983;SDS011;40884;53.562;9.940;2022-11-28T00:57:39;13.47;;;9.50;;
54983;SDS011;40884;53.562;9.940;2022-11-28T00:58:39;15.80;;;9.77;;
54983;SDS011;40884;53.562;9.940;2022-11-28T00:59:40;16.50;;;10.70;;
54983;SDS011;40884;53.562;9.940;2022-11-28T01:00:40;13.37;;;9.43;;
54983;SDS011;40884;53.562;9.940;2022-11-28T01:01:41;13.30;;;9.90;;
54983;SDS011;40884;53.562;9.940;2022-11-28T01:02:41;17.48;;;10.18;;
54983;SDS011;40884;53.562;9.940;2022-11-28T01:03:42;13.33;;;9.60;;
54983;SDS011;40884;53.562;9.940;2022-11-28T01:04:42;13.90;;;9.50;;
54983;SDS011;40884;53.562;9.940;2022-11-28T01:05:42;13.17;;;9.23;;
54983;SDS011;40884;53.562;9.940;2022-11-28T01:06:46;15.27;;;10.03;;
54983;SDS011;40884;53.562;9.940;2022-11-28T01:07:47;16.27;;;10.07;;
54983;SDS011;40884;53.562;9.940;2022-11-28T01:08:47;12.50;;;9.10;;
54983;SDS011;40884;53.562;9.940;2022-11-28T01:09:47;16.20;;;9.43;;
54983;SDS011;40884;53.562;9.940;2022-11-28T01:10:47;13.37;;;9.33;;
54983;SDS011;40884;53.562;9.940;2022-11-28T01:11:48;13.97;;;10.07;;
54983;SDS011;40884;53.562;9.940;2022-11-28T01:12:49;15.38;;;9.98;;
54983;SDS011;40884;53.562;9.940;2022-11-28T01:13:49;13.50;;;8.53;;
54983;SDS011;40884;53.562;9.940;2022-11-28T01:14:49;14.53;;;9.50;;
54983;SDS011;40884;53.562;9.940;2022-11-28T01:15:50;14.00;;;9.60;;
54983;SDS011;40884;53.562;9.940;2022-11-28T01:16:50;13.40;;;9.57;;
54983;SDS011;40884;53.562;9.940;2022-11-28T01:17:50;13.37;;;9.93;;
54983;SDS011;40884;53.562;9.940;2022-11-28T01:18:50;14.60;;;9.27;;
54983;SDS011;40884;53.562;9.940;2022-11-28T01:19:50;14.07;;;9.80;;
54983;SDS011;40884;53.562;9.940;2022-11-28T01:20:51;15.93;;;9.67;;
54983;SDS011;40884;53.562;9.940;2022-11-28T01:21:51;15.53;;;10.17;;
54983;SDS011;40884;53.562;9.940;2022-11-28T01:22:51;10.77;;;9.17;;
54983;SDS011;40884;53.562;9.940;2022-11-28T01:23:51;14.13;;;9.73;;
54983;SDS011;40884;53.562;9.940;2022-11-28T01:24:51;11.70;;;8.87;;
54983;SDS011;40884;53.562;9.940;2022-11-28T01:25:51;12.00;;;9.27;;
54983;SDS011;40884;53.562;9.940;2022-11-28T01:26:52;13.17;;;9.27;;
54983;SDS011;40884;53.562;9.940;2022-11-28T01:27:52;11.70;;;8.77;;
54983;SDS011;40884;53.562;9.940;2022-11-28T01:28:52;14.73;;;9.07;;
54983;SDS011;40884;53.562;9.940;2022-11-28T01:29:52;13.43;;;8.80;;
54983;SDS011;40884;53.562;9.940;2022-11-28T01:30:53;10.57;;;8.73;;
54983;SDS011;40884;53.562;9.940;2022-11-28T01:31:53;12.30;;;8.70;;
54983;SDS011;40884;53.562;9.940;2022-11-28T01:32:53;13.27;;;8.43;;
54983;SDS011;40884;53.562;9.940;2022-11-28T01:33:54;10.37;;;8.07;;
54983;SDS011;40884;53.562;9.940;2022-11-28T01:34:54;11.17;;;8.67;;
54983;SDS011;40884;53.562;9.940;2022-11-28T01:35:55;12.77;;;8.73;;
54983;SDS011;40884;53.562;9.940;2022-11-28T01:36:55;12.60;;;8.77;;
54983;SDS011;40884;53.562;9.940;2022-11-28T01:37:55;11.57;;;8.57;;
54983;SDS011;40884;53.562;9.940;2022-11-28T01:38:55;12.30;;;9.27;;
54983;SDS011;40884;53.562;9.940;2022-11-28T01:39:55;18.23;;;8.73;;
54983;SDS011;40884;53.562;9.940;2022-11-28T01:40:56;11.60;;;7.83;;
54983;SDS011;40884;53.562;9.940;2022-11-28T01:41:56;11.03;;;8.57;;
54983;SDS011;40884;53.562;9.940;2022-11-28T01:42:56;11.43;;;8.13;;
54983;SDS011;40884;53.562;9.940;2022-11-28T01:44:07;12.10;;;8.97;;
54983;SDS011;40884;53.562;9.940;2022-11-28T01:45:11;12.05;;;7.90;;
54983;SDS011;40884;53.562;9.940;2022-11-28T01:46:12;11.05;;;8.70;;
54983;SDS011;40884;53.562;9.940;2022-11-28T01:47:13;13.03;;;8.97;;
54983;SDS011;40884;53.562;9.940;2022-11-28T01:48:15;14.40;;;8.65;;
54983;SDS011;40884;53.562;9.940;2022-11-28T01:50:20;9.70;;;7.80;;
54983;SDS011;40884;53.562;9.940;2022-11-28T01:51:21;14.15;;;8.10;;
54983;SDS011;40884;53.562;9.940;2022-11-28T01:52:21;11.57;;;7.90;;
54983;SDS011;40884;53.562;9.940;2022-11-28T01:53:22;12.50;;;8.10;;
54983;SDS011;40884;53.562;9.940;2022-11-28T01:54:23;11.80;;;8.00;;
54983;SDS011;40884;53.562;9.940;2022-11-28T01:55:25;11.33;;;8.73;;
54983;SDS011;40884;53.562;9.940;2022-11-28T01:56:28;14.48;;;8.95;;
54983;SDS011;40884;53.562;9.940;2022-11-28T01:57:28;10.18;;;8.55;;
54983;SDS011;40884;53.562;9.940;2022-11-28T01:58:29;12.90;;;8.30;;
54983;SDS011;40884;53.562;9.940;2022-11-28T01:59:31;12.17;;;8.13;;
54983;SDS011;40884;53.562;9.940;2022-11-28T02:00:32;10.18;;;8.05;;
54983;SDS011;40884;53.562;9.940;2022-11-28T02:01:32;11.63;;;8.23;;
54983;SDS011;40884;53.562;9.940;2022-11-28T02:02:37;11.13;;;7.90;;
54983;SDS011;40884;53.562;9.940;2022-11-28T02:03:39;12.90;;;8.35;;
54983;SDS011;40884;53.562;9.940;2022-11-28T02:04:40;15.30;;;8.73;;
54983;SDS011;40884;53.562;9.940;2022-11-28T02:05:41;10.77;;;8.13;;
54983;SDS011;40884;53.562;9.940;2022-11-28T02:06:41;12.17;;;8.23;;
54983;SDS011;40884;53.562;9.940;2022-11-28T02:07:41;15.87;;;8.13;;
54983;SDS011;40884;53.562;9.940;2022-11-28T02:08:42;10.73;;;7.97;;
54983;SDS011;40884;53.562;9.940;2022-11-28T02:09:42;12.57;;;8.07;;
54983;SDS011;40884;53.562;9.940;2022-11-28T02:13:12;12.10;;;7.80;;
54983;SDS011;40884;53.562;9.940;2022-11-28T02:14:29;11.00;;;8.20;;
54983;SDS011;40884;53.562;9.940;2022-11-28T02:15:41;9.30;;;7.80;;
54983;SDS011;40884;53.562;9.940;2022-11-28T02:16:59;13.35;;;8.10;;
54983;SDS011;40884;53.562;9.940;2022-11-28T02:22:21;10.43;;;7.45;;
54983;SDS011;40884;53.562;9.940;2022-11-28T02:24:36;8.50;;;7.60;;
54983;SDS011;40884;53.562;9.940;2022-11-28T02:25:49;11.60;;;7.43;;
54983;SDS011;40884;53.562;9.940;2022-11-28T02:26:59;11.60;;;7.68;;
54983;SDS011;40884;53.562;9.940;2022-11-28T02:29:18;11.23;;;8.25;;
54983;SDS011;40884;53.562;9.940;2022-11-28T02:33:54;11.70;;;7.53;;
54983;SDS011;40884;53.562;9.940;2022-11-28T02:35:02;11.02;;;8.00;;
54983;SDS011;40884;53.562;9.940;2022-11-28T02:36:23;10.75;;;7.80;;
54983;SDS011;40884;53.562;9.940;2022-11-28T02:37:28;9.48;;;7.05;;
54983;SDS011;40884;53.562;9.940;2022-11-28T02:39:55;10.38;;;8.10;;
54983;SDS011;40884;53.562;9.940;2022-11-28T02:41:07;11.88;;;7.20;;
54983;SDS011;40884;53.562;9.940;2022-11-28T02:42:14;9.80;;;7.20;;
54983;SDS011;40884;53.562;9.940;2022-11-28T02:44:29;10.75;;;7.75;;
54983;SDS011;40884;53.562;9.940;2022-11-28T02:46:47;10.73;;;7.05;;
54983;SDS011;40884;53.562;9.940;2022-11-28T02:47:54;9.95;;;7.13;;
54983;SDS011;40884;53.562;9.940;2022-11-28T02:48:59;9.05;;;7.25;;
54983;SDS011;40884;53.562;9.940;2022-11-28T02:51:09;9.35;;;6.80;;
54983;SDS011;40884;53.562;9.940;2022-11-28T02:52:12;9.65;;;7.60;;
54983;SDS011;40884;53.562;9.940;2022-11-28T02:53:15;8.65;;;7.05;;
54983;SDS011;40884;53.562;9.940;2022-11-28T02:54:17;10.60;;;7.32;;
54983;SDS011;40884;53.562;9.940;2022-11-28T02:55:19;8.85;;;6.60;;
54983;SDS011;40884;53.562;9.940;2022-11-28T02:56:21;10.97;;;7.33;;
54983;SDS011;40884;53.562;9.940;2022-11-28T02:57:21;10.65;;;6.93;;
54983;SDS011;40884;53.562;9.940;2022-11-28T02:58:22;9.27;;;6.37;;
54983;SDS011;40884;53.562;9.940;2022-11-28T03:00:23;10.30;;;7.43;;
54983;SDS011;40884;53.562;9.940;2022-11-28T03:01:28;12.23;;;7.32;;
54983;SDS011;40884;53.562;9.940;2022-11-28T03:02:29;8.60;;;6.97;;
54983;SDS011;40884;53.562;9.940;2022-11-28T03:03:51;11.20;;;6.97;;
54983;SDS011;40884;53.562;9.940;2022-11-28T03:04:56;9.57;;;6.80;;
54983;SDS011;40884;53.562;9.940;2022-11-28T03:06:08;8.80;;;7.00;;
54983;SDS011;40884;53.562;9.940;2022-11-28T03:10:39;8.17;;;7.03;;
54983;SDS011;40884;53.562;9.940;2022-11-28T03:14:11;11.30;;;7.30;;
54983;SDS011;40884;53.562;9.940;2022-11-28T03:15:13;10.15;;;7.78;;
54983;SDS011;40884;53.562;9.940;2022-11-28T03:16:29;9.52;;;7.30;;
54983;SDS011;40884;53.562;9.940;2022-11-28T03:18:33;9.75;;;7.28;;
54983;SDS011;40884;53.562;9.940;2022-11-28T03:19:38;10.38;;;6.80;;
54983;SDS011;40884;53.562;9.940;2022-11-28T03:20:44;10.40;;;6.45;;
54983;SDS011;40884;53.562;9.940;2022-11-28T03:24:02;8.57;;;6.80;;
54983;SDS011;40884;53.562;9.940;2022-11-28T03:25:12;9.07;;;7.00;;
54983;SDS011;40884;53.562;9.940;2022-11-28T03:26:21;10.00;;;7.50;;
54983;SDS011;40884;53.562;9.940;2022-11-28T03:27:25;11.15;;;7.13;;
54983;SDS011;40884;53.562;9.940;2022-11-28T03:28:33;9.45;;;7.10;;
54983;SDS011;40884;53.562;9.940;2022-11-28T03:29:36;9.82;;;7.07;;
54983;SDS011;40884;53.562;9.940;2022-11-28T03:30:47;9.63;;;7.10;;
54983;SDS011;40884;53.562;9.940;2022-11-28T03:31:51;12.43;;;7.10;;
54983;SDS011;40884;53.562;9.940;2022-11-28T03:32:52;8.40;;;6.82;;
54983;SDS011;40884;53.562;9.940;2022-11-28T03:33:55;11.07;;;7.28;;
54983;SDS011;40884;53.562;9.940;2022-11-28T03:35:02;10.20;;;7.22;;
54983;SDS011;40884;53.562;9.940;2022-11-28T03:36:05;10.98;;;7.50;;
54983;SDS011;40884;53.562;9.940;2022-11-28T03:37:07;8.85;;;7.35;;
54983;SDS011;40884;53.562;9.940;2022-11-28T03:38:10;9.80;;;7.00;;
54983;SDS011;40884;53.562;9.940;2022-11-28T03:39:14;10.27;;;7.28;;
54983;SDS011;40884;53.562;9.940;2022-11-28T03:40:16;10.52;;;7.28;;
54983;SDS011;40884;53.562;9.940;2022-11-28T03:41:19;9.77;;;7.43;;
54983;SDS011;40884;53.562;9.940;2022-11-28T03:42:21;9.52;;;7.68;;
54983;SDS011;40884;53.562;9.940;2022-11-28T03:43:27;10.40;;;7.63;;
54983;SDS011;40884;53.562;9.940;2022-11-28T03:44:30;10.82;;;7.57;;
54983;SDS011;40884;53.562;9.940;2022-11-28T03:45:38;11.35;;;7.28;;
54983;SDS011;40884;53.562;9.940;2022-11-28T03:46:43;10.32;;;7.05;;
54983;SDS011;40884;53.562;9.940;2022-11-28T03:47:45;8.52;;;6.93;;
54983;SDS011;40884;53.562;9.940;2022-11-28T03:48:50;10.88;;;7.35;;
54983;SDS011;40884;53.562;9.940;2022-11-28T03:49:52;8.95;;;7.50;;
54983;SDS011;40884;53.562;9.940;2022-11-28T03:52:04;9.70;;;7.40;;
54983;SDS011;40884;53.562;9.940;2022-11-28T03:53:06;9.18;;;7.10;;
54983;SDS011;40884;53.562;9.940;2022-11-28T03:55:10;9.60;;;7.30;;
54983;SDS011;40884;53.562;9.940;2022-11-28T03:56:13;12.73;;;7.47;;
54983;SDS011;40884;53.562;9.940;2022-11-28T03:58:39;11.73;;;7.70;;
54983;SDS011;40884;53.562;9.940;2022-11-28T03:59:46;10.73;;;7.45;;
54983;SDS011;40884;53.562;9.940;2022-11-28T04:00:52;9.77;;;7.10;;
54983;SDS011;40884;53.562;9.940;2022-11-28T04:01:58;9.40;;;7.10;;
54983;SDS011;40884;53.562;9.940;2022-11-28T04:03:10;11.68;;;7.50;;
54983;SDS011;40884;53.562;9.940;2022-11-28T04:06:34;9.88;;;7.65;;
54983;SDS011;40884;53.562;9.940;2022-11-28T04:07:44;12.48;;;8.27;;
54983;SDS011;40884;53.562;9.940;2022-11-28T04:08:47;10.43;;;7.65;;
54983;SDS011;40884;53.562;9.940;2022-11-28T04:09:49;10.32;;;8.02;;
54983;SDS011;40884;53.562;9.940;2022-11-28T04:12:16;10.80;;;7.55;;
54983;SDS011;40884;53.562;9.940;2022-11-28T04:13:27;10.02;;;7.75;;
54983;SDS011;40884;53.562;9.940;2022-11-28T04:14:32;10.38;;;7.95;;
54983;SDS011;40884;53.562;9.940;2022-11-28T04:15:38;12.85;;;8.13;;
54983;SDS011;40884;53.562;9.940;2022-11-28T04:17:50;9.35;;;7.95;;
54983;SDS011;40884;53.562;9.940;2022-11-28T04:18:58;10.27;;;7.90;;
54983;SDS011;40884;53.562;9.940;2022-11-28T04:21:31;9.57;;;7.25;;
54983;SDS011;40884;53.562;9.940;2022-11-28T04:22:43;10.43;;;8.35;;
54983;SDS011;40884;53.562;9.940;2022-11-28T04:23:44;9.02;;;7.38;;
54983;SDS011;40884;53.562;9.940;2022-11-28T04:24:47;10.52;;;7.40;;
54983;SDS011;40884;53.562;9.940;2022-11-28T04:25:53;9.93;;;7.47;;
54983;SDS011;40884;53.562;9.940;2022-11-28T04:26:57;12.10;;;7.53;;
54983;SDS011;40884;53.562;9.940;2022-11-28T04:28:02;11.38;;;8.27;;
54983;SDS011;40884;53.562;9.940;2022-11-28T04:29:05;10.68;;;7.57;;
54983;SDS011;40884;53.562;9.940;2022-11-28T04:30:07;9.02;;;7.43;;
54983;SDS011;40884;53.562;9.940;2022-11-28T04:31:16;10.10;;;8.13;;
54983;SDS011;40884;53.562;9.940;2022-11-28T04:32:18;9.40;;;7.53;;
54983;SDS011;40884;53.562;9.940;2022-11-28T04:33:20;10.75;;;7.95;;
54983;SDS011;40884;53.562;9.940;2022-11-28T04:34:21;13.02;;;8.07;;
54983;SDS011;40884;53.562;9.940;2022-11-28T04:35:27;9.47;;;7.07;;
54983;SDS011;40884;53.562;9.940;2022-11-28T04:36:28;9.90;;;7.18;;
54983;SDS011;40884;53.562;9.940;2022-11-28T04:37:29;10.23;;;8.07;;
54983;SDS011;40884;53.562;9.940;2022-11-28T04:38:31;9.57;;;7.63;;
54983;SDS011;40884;53.562;9.940;2022-11-28T04:39:32;11.40;;;7.30;;
54983;SDS011;40884;53.562;9.940;2022-11-28T04:40:37;9.95;;;8.55;;
54983;SDS011;40884;53.562;9.940;2022-11-28T04:41:42;9.10;;;7.28;;
54983;SDS011;40884;53.562;9.940;2022-11-28T04:42:46;9.10;;;7.72;;
54983;SDS011;40884;53.562;9.940;2022-11-28T04:43:52;9.85;;;8.00;;
54983;SDS011;40884;53.562;9.940;2022-11-28T04:44:55;11.18;;;7.88;;
54983;SDS011;40884;53.562;9.940;2022-11-28T04:45:58;12.40;;;8.15;;
54983;SDS011;40884;53.562;9.940;2022-11-28T04:46:59;11.88;;;7.78;;
54983;SDS011;40884;53.562;9.940;2022-11-28T04:48:00;12.20;;;7.30;;
54983;SDS011;40884;53.562;9.940;2022-11-28T04:49:00;9.73;;;7.40;;
54983;SDS011;40884;53.562;9.940;2022-11-28T04:50:00;10.53;;;7.50;;
54983;SDS011;40884;53.562;9.940;2022-11-28T04:52:22;11.88;;;7.97;;
54983;SDS011;40884;53.562;9.940;2022-11-28T04:53:26;11.95;;;8.15;;
54983;SDS011;40884;53.562;9.940;2022-11-28T04:55:41;10.43;;;7.95;;
54983;SDS011;40884;53.562;9.940;2022-11-28T04:56:44;13.00;;;8.55;;
54983;SDS011;40884;53.562;9.940;2022-11-28T04:57:46;11.25;;;7.95;;
54983;SDS011;40884;53.562;9.940;2022-11-28T04:58:49;9.88;;;7.93;;
54983;SDS011;40884;53.562;9.940;2022-11-28T04:59:49;9.03;;;7.70;;
54983;SDS011;40884;53.562;9.940;2022-11-28T05:00:51;10.83;;;8.33;;
54983;SDS011;40884;53.562;9.940;2022-11-28T05:01:51;11.48;;;8.15;;
54983;SDS011;40884;53.562;9.940;2022-11-28T05:02:52;10.10;;;7.70;;
54983;SDS011;40884;53.562;9.940;2022-11-28T05:03:53;9.27;;;7.33;;
54983;SDS011;40884;53.562;9.940;2022-11-28T05:04:53;10.63;;;7.07;;
54983;SDS011;40884;53.562;9.940;2022-11-28T05:05:54;10.77;;;7.63;;
54983;SDS011;40884;53.562;9.940;2022-11-28T05:07:00;11.57;;;8.27;;
54983;SDS011;40884;53.562;9.940;2022-11-28T05:08:01;12.23;;;8.30;;
54983;SDS011;40884;53.562;9.940;2022-11-28T05:09:01;11.10;;;7.90;;
54983;SDS011;40884;53.562;9.940;2022-11-28T05:10:01;10.27;;;7.77;;
54983;SDS011;40884;53.562;9.940;2022-11-28T05:11:01;10.63;;;7.67;;
54983;SDS011;40884;53.562;9.940;2022-11-28T05:12:02;11.13;;;7.73;;
54983;SDS011;40884;53.562;9.940;2022-11-28T05:13:02;8.73;;;7.70;;
54983;SDS011;40884;53.562;9.940;2022-11-28T05:14:02;11.27;;;7.97;;
54983;SDS011;40884;53.562;9.940;2022-11-28T05:15:03;11.57;;;7.90;;
54983;SDS011;40884;53.562;9.940;2022-11-28T05:16:03;12.27;;;7.70;;
54983;SDS011;40884;53.562;9.940;2022-11-28T05:17:03;9.53;;;7.27;;
54983;SDS011;40884;53.562;9.940;2022-11-28T05:18:04;13.63;;;8.47;;
54983;SDS011;40884;53.562;9.940;2022-11-28T05:19:04;9.43;;;7.07;;
54983;SDS011;40884;53.562;9.940;2022-11-28T05:20:05;10.40;;;7.40;;
54983;SDS011;40884;53.562;9.940;2022-11-28T05:21:05;11.77;;;8.13;;
54983;SDS011;40884;53.562;9.940;2022-11-28T05:22:05;11.10;;;7.50;;
54983;SDS011;40884;53.562;9.940;2022-11-28T05:23:06;9.73;;;7.43;;
54983;SDS011;40884;53.562;9.940;2022-11-28T05:24:06;12.00;;;7.97;;
54983;SDS011;40884;53.562;9.940;2022-11-28T05:25:06;8.93;;;7.03;;
54983;SDS011;40884;53.562;9.940;2022-11-28T05:26:07;9.53;;;7.43;;
54983;SDS011;40884;53.562;9.940;2022-11-28T05:27:08;10.95;;;7.28;;
54983;SDS011;40884;53.562;9.940;2022-11-28T05:28:09;10.83;;;7.80;;
54983;SDS011;40884;53.562;9.940;2022-11-28T05:29:09;10.80;;;7.90;;
54983;SDS011;40884;53.562;9.940;2022-11-28T05:30:09;8.50;;;7.43;;
54983;SDS011;40884;53.562;9.940;2022-11-28T05:31:10;12.43;;;7.63;;
54983;SDS011;40884;53.562;9.940;2022-11-28T05:32:11;10.80;;;7.40;;
54983;SDS011;40884;53.562;9.940;2022-11-28T05:33:11;12.80;;;8.33;;
54983;SDS011;40884;53.562;9.940;2022-11-28T05:34:11;8.93;;;7.33;;
54983;SDS011;40884;53.562;9.940;2022-11-28T05:35:11;8.87;;;7.50;;
54983;SDS011;40884;53.562;9.940;2022-11-28T05:36:12;12.97;;;8.10;;
54983;SDS011;40884;53.562;9.940;2022-11-28T05:37:12;9.77;;;7.53;;
54983;SDS011;40884;53.562;9.940;2022-11-28T05:38:12;9.67;;;7.47;;
54983;SDS011;40884;53.562;9.940;2022-11-28T05:39:12;11.97;;;8.17;;
54983;SDS011;40884;53.562;9.940;2022-11-28T05:40:13;8.73;;;7.47;;
54983;SDS011;40884;53.562;9.940;2022-11-28T05:42:19;11.00;;;7.82;;
54983;SDS011;40884;53.562;9.940;2022-11-28T05:43:19;11.90;;;7.63;;
54983;SDS011;40884;53.562;9.940;2022-11-28T05:44:19;9.63;;;7.67;;
54983;SDS011;40884;53.562;9.940;2022-11-28T05:45:20;10.17;;;7.43;;
54983;SDS011;40884;53.562;9.940;2022-11-28T05:46:20;8.20;;;7.30;;
54983;SDS011;40884;53.562;9.940;2022-11-28T05:47:20;10.97;;;7.17;;
54983;SDS011;40884;53.562;9.940;2022-11-28T05:48:20;10.00;;;7.70;;
54983;SDS011;40884;53.562;9.940;2022-11-28T05:49:21;10.57;;;7.67;;
54983;SDS011;40884;53.562;9.940;2022-11-28T05:50:21;10.13;;;7.20;;
54983;SDS011;40884;53.562;9.940;2022-11-28T05:51:21;10.33;;;7.87;;
54983;SDS011;40884;53.562;9.940;2022-11-28T05:52:21;11.43;;;7.63;;
54983;SDS011;40884;53.562;9.940;2022-11-28T05:53:21;10.03;;;7.70;;
54983;SDS011;40884;53.562;9.940;2022-11-28T05:54:21;8.87;;;7.70;;
54983;SDS011;40884;53.562;9.940;2022-11-28T05:55:21;9.70;;;7.20;;
54983;SDS011;40884;53.562;9.940;2022-11-28T05:56:22;10.53;;;7.30;;
54983;SDS011;40884;53.562;9.940;2022-11-28T05:57:22;8.77;;;7.43;;
54983;SDS011;40884;53.562;9.940;2022-11-28T05:58:22;9.53;;;7.53;;
54983;SDS011;40884;53.562;9.940;2022-11-28T05:59:22;10.50;;;8.13;;
54983;SDS011;40884;53.562;9.940;2022-11-28T06:00:22;12.27;;;7.67;;
54983;SDS011;40884;53.562;9.940;2022-11-28T06:01:26;11.07;;;8.47;;
54983;SDS011;40884;53.562;9.940;2022-11-28T06:02:27;10.38;;;7.80;;
54983;SDS011;40884;53.562;9.940;2022-11-28T06:03:27;8.40;;;7.50;;
54983;SDS011;40884;53.562;9.940;2022-11-28T06:04:27;10.83;;;7.03;;
54983;SDS011;40884;53.562;9.940;2022-11-28T06:05:27;8.87;;;7.83;;
54983;SDS011;40884;53.562;9.940;2022-11-28T06:06:29;10.27;;;7.50;;
54983;SDS011;40884;53.562;9.940;2022-11-28T06:07:29;9.80;;;7.70;;
54983;SDS011;40884;53.562;9.940;2022-11-28T06:08:30;10.27;;;7.78;;
54983;SDS011;40884;53.562;9.940;2022-11-28T06:09:30;11.13;;;7.37;;
54983;SDS011;40884;53.562;9.940;2022-11-28T06:10:31;11.47;;;7.90;;
54983;SDS011;40884;53.562;9.940;2022-11-28T06:11:32;10.73;;;8.00;;
54983;SDS011;40884;53.562;9.940;2022-11-28T06:12:32;9.40;;;7.97;;
54983;SDS011;40884;53.562;9.940;2022-11-28T06:13:32;11.20;;;8.07;;
54983;SDS011;40884;53.562;9.940;2022-11-28T06:14:32;9.63;;;8.10;;
54983;SDS011;40884;53.562;9.940;2022-11-28T06:15:33;9.40;;;7.23;;
54983;SDS011;40884;53.562;9.940;2022-11-28T06:16:33;10.87;;;7.27;;
54983;SDS011;40884;53.562;9.940;2022-11-28T06:17:33;10.93;;;8.43;;
54983;SDS011;40884;53.562;9.940;2022-11-28T06:18:33;12.30;;;8.23;;
54983;SDS011;40884;53.562;9.940;2022-11-28T06:19:34;10.70;;;7.80;;
54983;SDS011;40884;53.562;9.940;2022-11-28T06:20:34;11.67;;;8.13;;
54983;SDS011;40884;53.562;9.940;2022-11-28T06:21:34;14.40;;;8.30;;
54983;SDS011;40884;53.562;9.940;2022-11-28T06:22:34;11.70;;;7.70;;
54983;SDS011;40884;53.562;9.940;2022-11-28T06:23:34;10.67;;;8.27;;
54983;SDS011;40884;53.562;9.940;2022-11-28T06:24:35;12.87;;;7.63;;
54983;SDS011;40884;53.562;9.940;2022-11-28T06:25:35;9.37;;;7.47;;
54983;SDS011;40884;53.562;9.940;2022-11-28T06:26:36;14.35;;;8.05;;
54983;SDS011;40884;53.562;9.940;2022-11-28T06:27:36;14.77;;;9.17;;
54983;SDS011;40884;53.562;9.940;2022-11-28T06:28:37;11.57;;;8.37;;
54983;SDS011;40884;53.562;9.940;2022-11-28T06:29:37;12.30;;;8.13;;
54983;SDS011;40884;53.562;9.940;2022-11-28T06:30:38;15.87;;;9.03;;
54983;SDS011;40884;53.562;9.940;2022-11-28T06:31:38;11.10;;;7.97;;
54983;SDS011;40884;53.562;9.940;2022-11-28T06:32:59;11.20;;;7.63;;
54983;SDS011;40884;53.562;9.940;2022-11-28T06:34:01;9.65;;;7.50;;
54983;SDS011;40884;53.562;9.940;2022-11-28T06:35:01;13.97;;;8.33;;
54983;SDS011;40884;53.562;9.940;2022-11-28T06:36:04;12.63;;;8.20;;
54983;SDS011;40884;53.562;9.940;2022-11-28T06:37:05;12.50;;;8.00;;
54983;SDS011;40884;53.562;9.940;2022-11-28T06:38:05;10.57;;;7.93;;
54983;SDS011;40884;53.562;9.940;2022-11-28T06:39:06;10.93;;;7.73;;
54983;SDS011;40884;53.562;9.940;2022-11-28T06:40:06;14.80;;;8.60;;
54983;SDS011;40884;53.562;9.940;2022-11-28T06:41:10;12.00;;;8.10;;
54983;SDS011;40884;53.562;9.940;2022-11-28T06:42:13;14.23;;;8.48;;
54983;SDS011;40884;53.562;9.940;2022-11-28T06:43:14;15.48;;;9.10;;
54983;SDS011;40884;53.562;9.940;2022-11-28T06:44:14;15.17;;;8.40;;
54983;SDS011;40884;53.562;9.940;2022-11-28T06:45:15;12.30;;;7.80;;
54983;SDS011;40884;53.562;9.940;2022-11-28T06:46:16;13.70;;;8.40;;
54983;SDS011;40884;53.562;9.940;2022-11-28T06:47:17;10.80;;;8.50;;
54983;SDS011;40884;53.562;9.940;2022-11-28T06:48:18;11.63;;;9.03;;
54983;SDS011;40884;53.562;9.940;2022-11-28T06:49:18;13.03;;;8.67;;
54983;SDS011;40884;53.562;9.940;2022-11-28T06:50:18;12.43;;;8.77;;
54983;SDS011;40884;53.562;9.940;2022-11-28T06:51:18;13.40;;;8.87;;